createdAt,value
2019-05-23T00:00:03.661Z,13.07
2019-05-23T00:01:03.674Z,12.97
2019-05-23T00:02:04.584Z,13.05
2019-05-23T00:03:03.627Z,12.95
2019-05-23T00:04:03.605Z,12.97
2019-05-23T00:05:03.590Z,12.92
2019-05-23T00:06:03.598Z,12.92
2019-05-23T00:07:03.603Z,13.03
2019-05-23T00:08:03.568Z,12.96
2019-05-23T00:09:03.554Z,12.95
2019-05-23T00:10:03.540Z,12.95
2019-05-23T00:11:03.538Z,12.93
2019-05-23T00:12:03.519Z,12.92
2019-05-23T00:13:03.499Z,12.93
2019-05-23T00:14:03.491Z,12.93
2019-05-23T00:15:03.489Z,12.92
2019-05-23T00:16:03.462Z,12.95
2019-05-23T00:17:03.475Z,12.95
2019-05-23T00:18:03.444Z,13.08
2019-05-23T00:19:03.457Z,13.07
2019-05-23T00:20:03.425Z,13.01
2019-05-23T00:21:03.416Z,12.96
2019-05-23T00:22:03.423Z,12.90
2019-05-23T00:23:03.403Z,13.01
2019-05-23T00:24:03.370Z,12.95
2019-05-23T00:25:03.380Z,12.96
2019-05-23T00:26:03.354Z,13.00
2019-05-23T00:27:03.351Z,12.95
2019-05-23T00:28:03.330Z,13.01
2019-05-23T00:29:10.128Z,12.92
2019-05-23T00:30:04.308Z,12.90
2019-05-23T00:31:03.299Z,12.93
2019-05-23T00:32:03.308Z,12.86
2019-05-23T00:33:03.276Z,12.83
2019-05-23T00:34:08.059Z,12.82
2019-05-23T00:35:03.251Z,12.87
2019-05-23T00:36:03.242Z,12.82
2019-05-23T00:37:03.233Z,12.78
2019-05-23T00:38:03.213Z,12.89
2019-05-23T00:39:03.204Z,12.82
2019-05-23T00:40:03.195Z,12.77
2019-05-23T00:41:03.186Z,12.82
2019-05-23T00:42:03.181Z,12.77
2019-05-23T00:43:03.168Z,12.75
2019-05-23T00:44:03.154Z,12.83
2019-05-23T00:45:03.141Z,12.85
2019-05-23T00:46:03.155Z,12.85
2019-05-23T00:47:03.153Z,12.77
2019-05-23T00:48:03.098Z,12.78
2019-05-23T00:49:03.089Z,12.77
2019-05-23T00:50:03.083Z,12.75
2019-05-23T00:51:05.350Z,12.75
2019-05-23T00:52:03.087Z,12.74
2019-05-23T00:53:03.042Z,12.72
2019-05-23T00:54:03.047Z,12.77
2019-05-23T00:55:03.026Z,12.82
2019-05-23T00:56:03.019Z,12.83
2019-05-23T00:57:03.004Z,12.75
2019-05-23T00:58:03.005Z,12.77
2019-05-23T00:59:02.978Z,12.74
2019-05-23T01:00:02.963Z,12.71
2019-05-23T01:01:02.962Z,12.70
2019-05-23T01:02:02.972Z,12.64
2019-05-23T01:03:02.960Z,12.71
2019-05-23T01:04:02.936Z,12.72
2019-05-23T01:05:02.942Z,12.68
2019-05-23T01:06:02.893Z,12.72
2019-05-23T01:07:02.893Z,12.62
2019-05-23T01:08:02.893Z,12.60
2019-05-23T01:09:02.868Z,12.65
2019-05-23T01:10:02.850Z,12.65
2019-05-23T01:11:02.840Z,12.62
2019-05-23T01:12:02.831Z,12.62
2019-05-23T01:13:02.846Z,12.60
2019-05-23T01:14:02.809Z,12.62
2019-05-23T01:15:02.792Z,12.67
2019-05-23T01:16:02.788Z,12.64
2019-05-23T01:17:02.776Z,12.65
2019-05-23T01:18:02.780Z,12.67
2019-05-23T01:19:02.753Z,12.59
2019-05-23T01:20:02.767Z,12.54
2019-05-23T01:21:02.743Z,12.56
2019-05-23T01:22:02.749Z,12.53
2019-05-23T01:23:02.716Z,12.60
2019-05-23T01:24:02.707Z,12.59
2019-05-23T01:25:02.683Z,12.67
2019-05-23T01:26:02.672Z,12.70
2019-05-23T01:27:02.656Z,12.60
2019-05-23T01:28:02.727Z,12.59
2019-05-23T01:29:02.646Z,12.62
2019-05-23T01:30:02.634Z,12.62
2019-05-23T01:31:02.612Z,12.64
2019-05-23T01:34:59.869Z,12.65
2019-05-23T01:35:19.222Z,12.60
2019-05-23T01:36:19.180Z,12.65
2019-05-23T01:37:19.177Z,12.54
2019-05-23T01:38:19.203Z,12.50
2019-05-23T01:39:19.216Z,12.52
2019-05-23T01:40:19.139Z,12.64
2019-05-23T01:41:19.131Z,12.57
2019-05-23T01:42:19.127Z,12.60
2019-05-23T01:43:19.126Z,12.65
2019-05-23T01:44:19.106Z,12.65
2019-05-23T01:45:19.096Z,12.64
2019-05-23T01:46:19.113Z,12.65
2019-05-23T01:47:19.079Z,12.65
2019-05-23T01:48:19.057Z,12.65
2019-05-23T01:49:19.089Z,12.65
2019-05-23T01:50:19.030Z,12.60
2019-05-23T01:51:19.046Z,12.53
2019-05-23T01:52:19.046Z,12.52
2019-05-23T01:53:18.995Z,12.53
2019-05-23T01:54:18.995Z,12.54
2019-05-23T01:55:18.978Z,12.46
2019-05-23T01:56:18.964Z,12.46
2019-05-23T01:57:18.954Z,12.45
2019-05-23T01:58:18.966Z,12.38
2019-05-23T01:59:18.952Z,12.41
2019-05-23T02:00:18.920Z,12.38
2019-05-23T02:01:18.910Z,12.34
2019-05-23T02:02:18.937Z,12.39
2019-05-23T02:03:18.883Z,12.47
2019-05-23T02:04:18.914Z,12.34
2019-05-23T02:05:18.867Z,12.37
2019-05-23T02:06:18.848Z,12.49
2019-05-23T02:07:18.846Z,12.38
2019-05-23T02:08:18.888Z,12.41
2019-05-23T02:09:18.884Z,12.37
2019-05-23T02:10:18.843Z,12.29
2019-05-23T02:11:18.795Z,12.29
2019-05-23T02:12:18.777Z,12.23
2019-05-23T02:13:18.770Z,12.27
2019-05-23T02:14:18.826Z,12.24
2019-05-23T02:15:18.747Z,12.23
2019-05-23T02:16:18.731Z,12.19
2019-05-23T02:17:18.727Z,12.20
2019-05-23T02:18:18.717Z,12.21
2019-05-23T02:19:18.706Z,12.23
2019-05-23T02:20:18.708Z,12.12
2019-05-23T02:21:18.707Z,12.14
2019-05-23T02:22:18.668Z,12.10
2019-05-23T02:23:18.675Z,12.16
2019-05-23T02:24:18.680Z,12.21
2019-05-23T02:25:18.660Z,12.14
2019-05-23T02:26:18.641Z,12.13
2019-05-23T02:27:18.614Z,12.10
2019-05-23T02:28:18.605Z,12.13
2019-05-23T02:29:18.600Z,12.05
2019-05-23T02:30:33.023Z,12.01
2019-05-23T02:31:19.564Z,11.99
2019-05-23T02:32:18.558Z,11.96
2019-05-23T02:33:18.555Z,11.99
2019-05-23T02:34:18.551Z,11.91
2019-05-23T02:35:18.539Z,11.91
2019-05-23T02:36:18.507Z,11.88
2019-05-23T02:37:18.500Z,11.83
2019-05-23T02:38:18.543Z,11.67
2019-05-23T02:39:18.530Z,11.75
2019-05-23T02:40:18.533Z,11.79
2019-05-23T02:41:18.462Z,11.82
2019-05-23T02:42:18.481Z,11.86
2019-05-23T02:43:18.425Z,11.72
2019-05-23T02:44:18.428Z,11.82
2019-05-23T02:45:18.418Z,11.75
2019-05-23T02:46:18.402Z,11.76
2019-05-23T02:47:18.389Z,11.80
2019-05-23T02:48:18.379Z,11.72
2019-05-23T02:49:18.390Z,11.69
2019-05-23T02:50:18.358Z,11.69
2019-05-23T02:51:18.344Z,11.69
2019-05-23T02:52:18.336Z,11.72
2019-05-23T02:53:18.317Z,11.69
2019-05-23T02:54:18.315Z,11.64
2019-05-23T02:55:18.304Z,11.64
2019-05-23T02:56:18.293Z,11.64
2019-05-23T02:57:18.286Z,11.65
2019-05-23T02:58:18.269Z,11.75
2019-05-23T02:59:18.250Z,11.72
2019-05-23T03:00:18.245Z,11.73
2019-05-23T03:01:18.234Z,11.76
2019-05-23T03:02:18.226Z,11.73
2019-05-23T03:03:18.209Z,11.76
2019-05-23T03:04:18.204Z,11.73
2019-05-23T03:05:18.205Z,11.73
2019-05-23T03:06:18.191Z,11.79
2019-05-23T03:07:18.267Z,11.72
2019-05-23T03:08:18.167Z,11.73
2019-05-23T03:09:18.179Z,11.73
2019-05-23T03:10:18.167Z,11.62
2019-05-23T03:11:18.143Z,11.57
2019-05-23T03:12:18.120Z,11.57
2019-05-23T03:13:18.131Z,11.58
2019-05-23T03:14:18.095Z,11.51
2019-05-23T03:15:18.091Z,11.49
2019-05-23T03:16:18.062Z,11.49
2019-05-23T03:17:18.057Z,11.46
2019-05-23T03:18:18.057Z,11.47
2019-05-23T03:19:18.084Z,11.44
2019-05-23T03:20:18.052Z,11.55
2019-05-23T03:21:18.011Z,11.60
2019-05-23T03:22:20.866Z,11.57
2019-05-23T03:23:17.999Z,11.52
2019-05-23T03:24:18.013Z,11.52
2019-05-23T03:25:17.971Z,11.54
2019-05-23T03:26:17.958Z,11.51
2019-05-23T03:27:17.944Z,11.43
2019-05-23T03:28:17.953Z,11.52
2019-05-23T03:29:17.928Z,11.47
2019-05-23T03:30:17.927Z,11.52
2019-05-23T03:31:30.977Z,11.51
2019-05-23T03:32:18.892Z,11.42
2019-05-23T03:33:17.882Z,11.49
2019-05-23T03:34:17.866Z,11.42
2019-05-23T03:35:17.858Z,11.47
2019-05-23T03:36:17.855Z,11.49
2019-05-23T03:37:17.848Z,11.40
2019-05-23T03:38:17.824Z,11.40
2019-05-23T03:39:17.839Z,11.40
2019-05-23T03:40:17.859Z,11.40
2019-05-23T03:41:17.812Z,11.40
2019-05-23T03:42:17.778Z,11.39
2019-05-23T03:43:17.763Z,11.37
2019-05-23T03:44:17.750Z,11.29
2019-05-23T03:45:17.749Z,11.28
2019-05-23T03:46:17.736Z,11.28
2019-05-23T03:47:17.722Z,11.18
2019-05-23T03:48:17.725Z,11.19
2019-05-23T03:49:17.704Z,11.19
2019-05-23T03:50:17.683Z,11.19
2019-05-23T03:51:17.693Z,11.24
2019-05-23T03:52:17.668Z,11.14
2019-05-23T03:53:17.656Z,11.17
2019-05-23T03:54:17.645Z,11.22
2019-05-23T03:55:17.635Z,11.21
2019-05-23T03:56:17.634Z,11.22
2019-05-23T03:57:17.606Z,11.19
2019-05-23T03:58:17.604Z,11.22
2019-05-23T03:59:17.620Z,11.14
2019-05-23T04:00:17.588Z,11.06
2019-05-23T04:01:17.580Z,11.09
2019-05-23T04:02:17.578Z,11.14
2019-05-23T04:03:17.582Z,11.14
2019-05-23T04:04:17.569Z,11.14
2019-05-23T04:05:17.527Z,11.14
2019-05-23T04:06:17.522Z,11.15
2019-05-23T04:07:17.508Z,11.14
2019-05-23T04:08:17.500Z,11.11
2019-05-23T04:09:17.481Z,11.06
2019-05-23T04:10:17.465Z,11.09
2019-05-23T04:11:17.464Z,11.04
2019-05-23T04:12:17.440Z,11.00
2019-05-23T04:13:17.449Z,10.97
2019-05-23T04:14:17.423Z,10.99
2019-05-23T04:15:17.415Z,11.03
2019-05-23T04:16:17.415Z,11.00
2019-05-23T04:17:17.386Z,10.84
2019-05-23T04:18:17.412Z,10.96
2019-05-23T04:19:17.392Z,10.94
2019-05-23T04:20:17.387Z,10.96
2019-05-23T04:21:17.341Z,10.99
2019-05-23T04:22:17.346Z,10.86
2019-05-23T04:23:17.319Z,10.86
2019-05-23T04:24:17.318Z,10.91
2019-05-23T04:25:17.315Z,10.85
2019-05-23T04:26:17.288Z,10.91
2019-05-23T04:27:17.291Z,10.97
2019-05-23T04:28:17.270Z,10.91
2019-05-23T04:29:17.256Z,10.94
2019-05-23T04:30:17.241Z,10.91
2019-05-23T04:31:17.238Z,10.88
2019-05-23T04:32:17.241Z,10.94
2019-05-23T04:33:17.207Z,10.94
2019-05-23T04:34:17.203Z,10.86
2019-05-23T04:35:17.186Z,10.91
2019-05-23T04:36:17.171Z,10.96
2019-05-23T04:37:17.283Z,10.86
2019-05-23T04:38:17.173Z,10.86
2019-05-23T04:39:17.161Z,10.88
2019-05-23T04:40:17.133Z,10.88
2019-05-23T04:41:17.120Z,10.84
2019-05-23T04:42:17.119Z,10.85
2019-05-23T04:43:17.095Z,10.96
2019-05-23T04:44:17.093Z,10.91
2019-05-23T04:45:17.074Z,10.88
2019-05-23T04:46:17.071Z,10.88
2019-05-23T04:47:17.069Z,10.81
2019-05-23T04:48:17.049Z,10.84
2019-05-23T04:49:17.033Z,10.85
2019-05-23T04:50:17.028Z,10.89
2019-05-23T04:51:17.007Z,10.81
2019-05-23T04:52:17.009Z,10.92
2019-05-23T04:53:16.981Z,10.86
2019-05-23T04:54:16.977Z,10.81
2019-05-23T04:55:16.959Z,10.85
2019-05-23T04:56:16.975Z,10.74
2019-05-23T04:57:16.977Z,10.82
2019-05-23T04:58:16.930Z,10.78
2019-05-23T04:59:16.915Z,10.73
2019-05-23T05:00:16.914Z,10.82
2019-05-23T05:01:16.909Z,10.71
2019-05-23T05:02:26.163Z,10.64
2019-05-23T05:03:18.866Z,10.63
2019-05-23T05:04:16.856Z,10.70
2019-05-23T05:05:16.850Z,10.71
2019-05-23T05:06:16.846Z,10.68
2019-05-23T05:07:16.834Z,10.68
2019-05-23T05:08:16.883Z,10.74
2019-05-23T05:09:16.809Z,10.78
2019-05-23T05:10:16.788Z,10.78
2019-05-23T05:11:16.789Z,10.82
2019-05-23T05:12:16.782Z,10.85
2019-05-23T05:13:16.763Z,10.82
2019-05-23T05:14:16.747Z,10.73
2019-05-23T05:15:16.734Z,10.85
2019-05-23T05:16:16.783Z,10.85
2019-05-23T05:17:16.736Z,10.81
2019-05-23T05:18:16.713Z,10.92
2019-05-23T05:19:16.699Z,10.86
2019-05-23T05:20:16.681Z,10.89
2019-05-23T05:21:16.664Z,10.86
2019-05-23T05:22:16.653Z,10.94
2019-05-23T05:23:16.660Z,10.96
2019-05-23T05:24:16.650Z,10.97
2019-05-23T05:25:16.632Z,10.97
2019-05-23T05:26:16.622Z,10.94
2019-05-23T05:27:16.615Z,10.96
2019-05-23T05:28:16.596Z,11.07
2019-05-23T05:29:16.581Z,11.07
2019-05-23T05:30:16.566Z,11.14
2019-05-23T05:31:16.553Z,11.07
2019-05-23T05:32:16.542Z,11.17
2019-05-23T05:33:16.551Z,11.19
2019-05-23T05:34:16.524Z,11.27
2019-05-23T05:35:16.548Z,11.32
2019-05-23T05:36:16.518Z,11.27
2019-05-23T05:37:16.504Z,11.39
2019-05-23T05:38:16.509Z,11.25
2019-05-23T05:39:16.468Z,11.19
2019-05-23T05:40:16.457Z,11.27
2019-05-23T05:41:16.459Z,11.28
2019-05-23T05:42:16.437Z,11.35
2019-05-23T05:43:16.435Z,11.46
2019-05-23T05:44:16.416Z,11.52
2019-05-23T05:45:16.406Z,11.54
2019-05-23T05:46:16.390Z,11.67
2019-05-23T05:47:16.381Z,11.62
2019-05-23T05:48:16.386Z,11.69
2019-05-23T05:49:16.398Z,11.73
2019-05-23T05:50:16.342Z,11.72
2019-05-23T05:51:16.334Z,11.72
2019-05-23T05:52:16.322Z,11.85
2019-05-23T05:53:16.335Z,11.78
2019-05-23T05:54:16.297Z,11.85
2019-05-23T05:55:16.287Z,11.80
2019-05-23T05:56:16.285Z,11.98
2019-05-23T05:57:16.275Z,11.90
2019-05-23T05:58:16.338Z,11.91
2019-05-23T05:59:16.247Z,11.88
2019-05-23T06:00:16.239Z,11.98
2019-05-23T06:01:31.196Z,12.05
2019-05-23T06:02:17.226Z,12.02
2019-05-23T06:03:16.221Z,12.13
2019-05-23T06:04:16.192Z,12.09
2019-05-23T06:05:16.176Z,11.99
2019-05-23T06:06:16.165Z,12.10
2019-05-23T06:07:16.215Z,12.12
2019-05-23T06:08:16.145Z,11.94
2019-05-23T06:09:16.146Z,12.05
2019-05-23T06:10:16.140Z,12.12
2019-05-23T06:11:16.129Z,12.12
2019-05-23T06:12:16.114Z,12.14
2019-05-23T06:13:16.104Z,12.27
2019-05-23T06:14:16.093Z,12.20
2019-05-23T06:15:16.065Z,12.29
2019-05-23T06:16:16.056Z,12.42
2019-05-23T06:17:16.057Z,12.37
2019-05-23T06:18:16.034Z,12.46
2019-05-23T06:19:16.032Z,12.46
2019-05-23T06:20:16.008Z,12.49
2019-05-23T06:21:15.998Z,12.46
2019-05-23T06:22:15.992Z,12.42
2019-05-23T06:23:15.976Z,12.53
2019-05-23T06:24:15.988Z,12.47
2019-05-23T06:25:15.967Z,12.49
2019-05-23T06:26:15.947Z,12.52
2019-05-23T06:27:15.950Z,12.53
2019-05-23T06:28:15.928Z,12.65
2019-05-23T06:29:15.979Z,12.60
2019-05-23T06:30:15.897Z,12.70
2019-05-23T06:31:15.894Z,12.64
2019-05-23T06:32:15.875Z,12.64
2019-05-23T06:33:23.255Z,12.60
2019-05-23T06:34:16.865Z,12.65
2019-05-23T06:35:15.852Z,12.52
2019-05-23T06:36:15.841Z,12.54
2019-05-23T06:37:15.822Z,12.64
2019-05-23T06:38:15.814Z,12.54
2019-05-23T06:39:16.053Z,12.59
2019-05-23T06:40:15.785Z,12.64
2019-05-23T06:41:15.802Z,12.65
2019-05-23T06:42:15.767Z,12.65
2019-05-23T06:43:15.756Z,12.64
2019-05-23T06:44:15.756Z,12.62
2019-05-23T06:45:15.734Z,12.67
2019-05-23T06:46:15.724Z,12.64
2019-05-23T06:47:15.711Z,12.65
2019-05-23T06:48:15.828Z,12.68
2019-05-23T06:49:15.703Z,12.85
2019-05-23T06:50:15.676Z,12.86
2019-05-23T06:51:15.735Z,12.85
2019-05-23T06:52:15.649Z,12.89
2019-05-23T06:53:15.658Z,12.86
2019-05-23T06:54:15.641Z,12.85
2019-05-23T06:55:15.619Z,12.92
2019-05-23T06:56:15.619Z,12.85
2019-05-23T06:57:15.595Z,12.90
2019-05-23T06:58:15.586Z,13.01
2019-05-23T06:59:15.614Z,12.97
2019-05-23T07:00:15.556Z,13.03
2019-05-23T07:01:15.545Z,13.01
2019-05-23T07:02:15.543Z,13.00
2019-05-23T07:03:15.529Z,13.01
2019-05-23T07:04:15.539Z,12.96
2019-05-23T07:05:15.509Z,13.01
2019-05-23T07:06:15.494Z,12.95
2019-05-23T07:07:15.491Z,13.10
2019-05-23T07:08:15.472Z,12.96
2019-05-23T07:09:15.487Z,13.04
2019-05-23T07:10:15.445Z,13.08
2019-05-23T07:11:15.432Z,13.11
2019-05-23T07:12:15.424Z,13.39
2019-05-23T07:13:15.411Z,13.39
2019-05-23T07:14:15.405Z,13.41
2019-05-23T07:15:15.401Z,13.42
2019-05-23T07:16:15.378Z,13.44
2019-05-23T07:17:15.363Z,13.49
2019-05-23T07:18:15.360Z,13.48
2019-05-23T07:19:15.351Z,13.52
2019-05-23T07:20:15.352Z,13.52
2019-05-23T07:21:15.359Z,13.55
2019-05-23T07:22:18.610Z,13.60
2019-05-23T07:23:15.300Z,13.55
2019-05-23T07:24:15.289Z,13.60
2019-05-23T07:25:15.287Z,13.60
2019-05-23T07:26:15.270Z,13.63
2019-05-23T07:27:15.250Z,13.60
2019-05-23T07:28:15.371Z,13.57
2019-05-23T07:29:15.247Z,13.66
2019-05-23T07:30:15.224Z,13.62
2019-05-23T07:31:15.215Z,13.69
2019-05-23T07:32:15.205Z,13.66
2019-05-23T07:33:15.195Z,13.78
2019-05-23T07:34:15.172Z,13.71
2019-05-23T07:35:15.174Z,13.70
2019-05-23T07:36:15.160Z,13.73
2019-05-23T07:37:15.140Z,13.69
2019-05-23T07:38:15.134Z,13.69
2019-05-23T07:39:15.121Z,13.70
2019-05-23T07:40:15.139Z,13.73
2019-05-23T07:41:15.101Z,13.63
2019-05-23T07:42:15.089Z,13.69
2019-05-23T07:43:15.091Z,13.77
2019-05-23T07:44:15.083Z,13.81
2019-05-23T07:45:15.061Z,13.71
2019-05-23T07:46:15.040Z,13.79
2019-05-23T07:47:15.041Z,13.82
2019-05-23T07:48:15.026Z,13.85
2019-05-23T07:49:15.028Z,13.89
2019-05-23T07:50:15.015Z,13.97
2019-05-23T07:51:14.998Z,14.03
2019-05-23T07:52:14.980Z,13.97
2019-05-23T07:53:14.983Z,14.06
2019-05-23T07:54:14.959Z,14.07
2019-05-23T07:55:14.958Z,14.09
2019-05-23T07:56:14.935Z,14.06
2019-05-23T07:57:14.932Z,14.22
2019-05-23T07:58:14.916Z,14.20
2019-05-23T07:59:14.897Z,14.20
2019-05-23T08:00:14.886Z,14.28
2019-05-23T08:01:14.959Z,14.25
2019-05-23T08:02:14.861Z,14.35
2019-05-23T08:03:14.877Z,14.35
2019-05-23T08:04:22.063Z,14.40
2019-05-23T08:05:15.832Z,14.33
2019-05-23T08:06:14.875Z,14.29
2019-05-23T08:07:14.811Z,14.39
2019-05-23T08:08:14.818Z,14.37
2019-05-23T08:09:14.788Z,14.39
2019-05-23T08:10:30.939Z,14.39
2019-05-23T08:11:15.772Z,14.35
2019-05-23T08:12:14.755Z,14.37
2019-05-23T08:13:14.744Z,14.39
2019-05-23T08:14:14.730Z,14.43
2019-05-23T08:15:14.726Z,14.52
2019-05-23T08:16:14.734Z,14.54
2019-05-23T08:17:14.691Z,14.64
2019-05-23T08:18:14.677Z,14.73
2019-05-23T08:19:19.219Z,14.80
2019-05-23T08:20:15.659Z,14.81
2019-05-23T08:21:14.654Z,14.92
2019-05-23T08:22:14.639Z,14.92
2019-05-23T08:23:14.620Z,14.86
2019-05-23T08:24:14.610Z,14.75
2019-05-23T08:25:14.611Z,14.70
2019-05-23T08:26:14.599Z,14.75
2019-05-23T08:27:14.584Z,14.70
2019-05-23T08:28:14.582Z,14.69
2019-05-23T08:29:27.043Z,14.72
2019-05-23T08:30:15.555Z,14.73
2019-05-23T08:31:14.591Z,14.81
2019-05-23T08:32:14.521Z,14.91
2019-05-23T08:33:14.575Z,14.98
2019-05-23T08:34:14.500Z,14.96
2019-05-23T08:35:17.853Z,15.06
2019-05-23T08:36:14.485Z,15.03
2019-05-23T08:37:14.464Z,14.92
2019-05-23T08:38:14.452Z,14.94
2019-05-23T08:39:14.444Z,14.88
2019-05-23T08:40:14.453Z,14.95
2019-05-23T08:41:14.424Z,15.01
2019-05-23T08:42:14.409Z,15.02
2019-05-23T08:43:14.577Z,15.09
2019-05-23T08:44:14.379Z,15.11
2019-05-23T08:45:14.372Z,15.10
2019-05-23T08:46:14.431Z,15.17
2019-05-23T08:47:14.350Z,15.27
2019-05-23T08:48:14.333Z,15.27
2019-05-23T08:49:14.333Z,15.19
2019-05-23T08:50:14.323Z,15.31
2019-05-23T08:51:14.328Z,15.20
2019-05-23T08:52:14.304Z,15.23
2019-05-23T08:53:14.278Z,15.28
2019-05-23T08:54:14.296Z,15.23
2019-05-23T08:55:14.259Z,15.16
2019-05-23T08:56:19.127Z,15.23
2019-05-23T08:57:15.244Z,15.32
2019-05-23T08:58:14.226Z,15.28
2019-05-23T08:59:14.210Z,15.41
2019-05-23T09:00:14.213Z,15.43
2019-05-23T09:01:14.198Z,15.43
2019-05-23T09:02:14.186Z,15.51
2019-05-23T09:03:14.184Z,15.53
2019-05-23T09:04:14.159Z,15.56
2019-05-23T09:05:14.154Z,15.64
2019-05-23T09:06:14.139Z,15.68
2019-05-23T09:07:14.337Z,15.82
2019-05-23T09:08:17.048Z,15.92
2019-05-23T09:09:28.567Z,16.00
2019-05-23T09:10:15.095Z,16.01
2019-05-23T09:11:14.078Z,16.05
2019-05-23T09:12:14.085Z,15.96
2019-05-23T09:13:14.054Z,16.05
2019-05-23T09:14:14.041Z,16.04
2019-05-23T09:15:14.031Z,16.05
2019-05-23T09:16:14.031Z,16.11
2019-05-23T09:17:14.198Z,16.17
2019-05-23T09:18:14.005Z,16.27
2019-05-23T09:19:13.988Z,16.23
2019-05-23T09:20:13.981Z,16.23
2019-05-23T09:21:14.005Z,16.15
2019-05-23T09:22:13.974Z,16.15
2019-05-23T09:23:13.942Z,16.12
2019-05-23T09:24:13.940Z,16.02
2019-05-23T09:25:13.921Z,16.11
2019-05-23T09:26:13.913Z,16.12
2019-05-23T09:27:13.904Z,16.14
2019-05-23T09:28:13.884Z,16.28
2019-05-23T09:29:13.881Z,16.41
2019-05-23T09:30:13.876Z,16.42
2019-05-23T09:31:13.851Z,16.35
2019-05-23T09:32:13.852Z,16.31
2019-05-23T09:33:13.840Z,16.43
2019-05-23T09:34:13.830Z,16.41
2019-05-23T09:35:20.796Z,16.43
2019-05-23T09:36:14.819Z,16.50
2019-05-23T09:37:13.797Z,16.49
2019-05-23T09:38:13.777Z,16.66
2019-05-23T09:39:13.790Z,16.67
2019-05-23T09:40:13.754Z,16.76
2019-05-23T09:41:13.765Z,16.78
2019-05-23T09:42:13.736Z,16.79
2019-05-23T09:43:13.748Z,16.91
2019-05-23T09:44:13.715Z,16.82
2019-05-23T09:45:13.727Z,16.81
2019-05-23T09:46:13.685Z,16.78
2019-05-23T09:47:13.678Z,16.67
2019-05-23T09:48:13.659Z,16.70
2019-05-23T09:49:13.653Z,16.73
2019-05-23T09:50:13.646Z,16.61
2019-05-23T09:51:13.625Z,16.58
2019-05-23T09:52:13.644Z,16.61
2019-05-23T09:53:13.605Z,16.60
2019-05-23T09:54:13.595Z,16.57
2019-05-23T09:55:13.590Z,16.61
2019-05-23T09:56:13.591Z,16.58
2019-05-23T09:57:13.568Z,16.75
2019-05-23T09:58:13.553Z,16.78
2019-05-23T09:59:13.537Z,16.93
2019-05-23T10:00:13.525Z,17.04
2019-05-23T10:01:13.519Z,17.03
2019-05-23T10:02:13.505Z,17.03
2019-05-23T10:03:13.509Z,17.08
2019-05-23T10:04:13.491Z,16.96
2019-05-23T10:05:13.470Z,16.89
2019-05-23T10:06:13.484Z,17.00
2019-05-23T10:07:13.464Z,17.01
2019-05-23T10:08:13.460Z,17.12
2019-05-23T10:09:13.434Z,17.15
2019-05-23T10:10:13.415Z,17.16
2019-05-23T10:11:13.415Z,17.28
2019-05-23T10:12:13.393Z,17.25
2019-05-23T10:13:13.400Z,17.26
2019-05-23T10:14:13.375Z,17.38
2019-05-23T10:15:13.359Z,17.36
2019-05-23T10:16:13.408Z,17.36
2019-05-23T10:17:13.336Z,17.33
2019-05-23T10:18:13.337Z,17.54
2019-05-23T10:19:13.322Z,17.49
2019-05-23T10:20:13.314Z,17.54
2019-05-23T10:21:13.402Z,17.52
2019-05-23T10:22:13.279Z,17.52
2019-05-23T10:23:13.299Z,17.74
2019-05-23T10:24:13.259Z,17.70
2019-05-23T10:25:13.249Z,17.82
2019-05-23T10:26:13.239Z,17.84
2019-05-23T10:27:13.233Z,17.84
2019-05-23T10:28:13.230Z,17.81
2019-05-23T10:29:13.206Z,17.82
2019-05-23T10:30:13.195Z,17.86
2019-05-23T10:31:13.185Z,17.97
2019-05-23T10:32:13.178Z,18.08
2019-05-23T10:33:13.618Z,18.15
2019-05-23T10:34:13.144Z,18.25
2019-05-23T10:35:13.141Z,18.90
2019-05-23T10:36:13.127Z,19.87
2019-05-23T10:37:13.115Z,21.31
2019-05-23T10:38:13.113Z,22.80
2019-05-23T10:39:13.094Z,24.34
2019-05-23T10:40:13.093Z,25.42
2019-05-23T10:41:13.079Z,25.97
2019-05-23T10:42:13.061Z,26.57
2019-05-23T10:43:13.056Z,27.24
2019-05-23T10:44:13.044Z,28.22
2019-05-23T10:45:13.043Z,28.95
2019-05-23T10:46:13.019Z,29.71
2019-05-23T10:47:13.011Z,30.24
2019-05-23T10:48:13.024Z,29.97
2019-05-23T10:49:12.994Z,29.71
2019-05-23T10:50:12.970Z,29.05
2019-05-23T10:51:12.966Z,28.46
2019-05-23T10:52:12.953Z,28.70
2019-05-23T10:53:12.962Z,29.14
2019-05-23T10:54:12.933Z,29.00
2019-05-23T10:55:12.919Z,28.88
2019-05-23T10:56:12.913Z,29.04
2019-05-23T10:57:12.908Z,28.85
2019-05-23T10:58:12.901Z,28.98
2019-05-23T10:59:12.881Z,29.04
2019-05-23T11:00:12.887Z,28.71
2019-05-23T11:01:12.875Z,29.04
2019-05-23T11:02:12.863Z,29.27
2019-05-23T11:03:12.915Z,28.81
2019-05-23T11:04:12.831Z,28.25
2019-05-23T11:05:14.253Z,27.59
2019-05-23T11:06:16.558Z,27.44
2019-05-23T11:07:12.807Z,27.60
2019-05-23T11:08:12.818Z,28.04
2019-05-23T11:09:12.787Z,28.36
2019-05-23T11:10:12.777Z,28.31
2019-05-23T11:11:14.504Z,27.72
2019-05-23T11:12:12.768Z,27.60
2019-05-23T11:13:12.760Z,27.34
2019-05-23T11:14:12.741Z,26.88
2019-05-23T11:15:12.798Z,26.89
2019-05-23T11:16:12.716Z,26.88
2019-05-23T11:17:12.723Z,27.09
2019-05-23T11:18:12.698Z,27.07
2019-05-23T11:19:12.710Z,27.07
2019-05-23T11:20:12.689Z,27.55
2019-05-23T11:21:12.672Z,27.22
2019-05-23T11:22:12.667Z,27.36
2019-05-23T11:23:12.658Z,27.55
2019-05-23T11:24:12.655Z,27.49
2019-05-23T11:25:12.651Z,27.75
2019-05-23T11:26:12.630Z,28.07
2019-05-23T11:27:12.619Z,28.29
2019-05-23T11:28:12.631Z,28.83
2019-05-23T11:29:12.603Z,29.51
2019-05-23T11:30:12.591Z,29.80
2019-05-23T11:31:12.586Z,29.64
2019-05-23T11:32:12.566Z,30.13
2019-05-23T11:33:12.559Z,30.51
2019-05-23T11:34:12.552Z,30.86
2019-05-23T11:35:12.552Z,30.51
2019-05-23T11:36:12.536Z,30.23
2019-05-23T11:37:12.528Z,30.45
2019-05-23T11:38:12.520Z,30.92
2019-05-23T11:39:12.520Z,31.14
2019-05-23T11:40:12.559Z,31.43
2019-05-23T11:41:12.485Z,31.38
2019-05-23T11:42:12.473Z,31.63
2019-05-23T11:43:12.471Z,31.96
2019-05-23T11:44:12.471Z,31.99
2019-05-23T11:45:12.454Z,31.61
2019-05-23T11:46:12.447Z,31.86
2019-05-23T11:47:12.444Z,32.04
2019-05-23T11:48:15.897Z,32.30
2019-05-23T11:49:12.417Z,32.43
2019-05-23T11:50:12.409Z,32.66
2019-05-23T11:51:12.395Z,32.77
2019-05-23T11:52:12.408Z,32.94
2019-05-23T11:53:12.397Z,32.85
2019-05-23T11:54:12.387Z,32.66
2019-05-23T11:55:12.356Z,32.47
2019-05-23T11:56:12.349Z,32.51
2019-05-23T11:57:12.337Z,32.85
2019-05-23T11:58:12.339Z,33.16
2019-05-23T11:59:12.341Z,33.26
2019-05-23T12:00:12.316Z,33.49
2019-05-23T12:01:19.870Z,33.44
2019-05-23T12:02:13.311Z,33.39
2019-05-23T12:03:12.284Z,32.11
2019-05-23T12:04:12.427Z,30.91
2019-05-23T12:05:12.275Z,30.29
2019-05-23T12:06:12.297Z,29.92
2019-05-23T12:07:12.255Z,29.79
2019-05-23T12:08:12.246Z,29.02
2019-05-23T12:09:12.257Z,28.83
2019-05-23T12:10:12.228Z,28.86
2019-05-23T12:11:12.224Z,28.85
2019-05-23T12:12:12.231Z,29.09
2019-05-23T12:13:12.209Z,29.16
2019-05-23T12:14:12.200Z,28.66
2019-05-23T12:15:12.192Z,28.37
2019-05-23T12:16:12.174Z,28.02
2019-05-23T12:17:12.158Z,27.44
2019-05-23T12:18:12.159Z,26.91
2019-05-23T12:19:12.152Z,26.72
2019-05-23T12:20:12.143Z,26.52
2019-05-23T12:21:12.121Z,26.85
2019-05-23T12:22:12.115Z,26.70
2019-05-23T12:23:12.108Z,26.44
2019-05-23T12:24:12.184Z,26.51
2019-05-23T12:25:21.962Z,26.40
2019-05-23T12:26:13.076Z,26.12
2019-05-23T12:27:12.068Z,26.09
2019-05-23T12:28:12.225Z,25.92
2019-05-23T12:29:12.047Z,25.85
2019-05-23T12:30:12.058Z,25.65
2019-05-23T12:31:12.029Z,25.64
2019-05-23T12:32:12.020Z,25.08
2019-05-23T12:33:12.020Z,24.64
2019-05-23T12:34:11.998Z,24.18
2019-05-23T12:35:12.408Z,24.22
2019-05-23T12:36:11.974Z,24.35
2019-05-23T12:37:18.874Z,24.58
2019-05-23T12:38:12.975Z,24.27
2019-05-23T12:39:11.958Z,24.16
2019-05-23T12:40:11.967Z,24.25
2019-05-23T12:41:11.928Z,24.21
2019-05-23T12:42:11.925Z,24.37
2019-05-23T12:43:11.912Z,24.62
2019-05-23T12:44:11.904Z,24.95
2019-05-23T12:45:11.953Z,25.33
2019-05-23T12:46:11.901Z,25.88
2019-05-23T12:47:11.869Z,26.20
2019-05-23T12:48:11.863Z,26.52
2019-05-23T12:49:11.850Z,26.94
2019-05-23T12:50:11.942Z,27.06
2019-05-23T12:51:11.839Z,27.25
2019-05-23T12:52:11.824Z,27.44
2019-05-23T12:53:11.805Z,27.57
2019-05-23T12:54:11.845Z,27.43